createdAt,value
2019-02-05T00:00:45.270Z,3.43
2019-02-05T00:03:15.481Z,6.03
2019-02-05T00:05:43.909Z,8.17
2019-02-05T00:08:12.289Z,8.27
2019-02-05T00:10:40.950Z,8.03
2019-02-05T00:13:09.349Z,6.83
2019-02-05T00:15:38.009Z,8.20
2019-02-05T00:18:06.459Z,5.30
2019-02-05T00:20:34.845Z,7.13
2019-02-05T00:23:03.218Z,10.90
2019-02-05T00:25:31.611Z,9.10
2019-02-05T00:27:59.985Z,14.27
2019-02-05T00:30:28.643Z,7.80
2019-02-05T00:32:57.092Z,14.43
2019-02-05T00:35:25.477Z,7.97
2019-02-05T00:37:53.918Z,13.73
2019-02-05T00:40:22.382Z,5.40
2019-02-05T00:42:50.755Z,5.40
2019-02-05T00:45:20.350Z,5.37
2019-02-05T00:47:48.730Z,5.97
2019-02-05T00:50:18.558Z,4.47
2019-02-05T00:52:47.008Z,5.73
2019-02-05T00:55:17.034Z,7.97
2019-02-05T00:57:45.409Z,5.37
2019-02-05T01:00:26.074Z,7.70
2019-02-05T01:02:54.515Z,4.70
2019-02-05T01:05:23.348Z,5.17
2019-02-05T01:07:51.868Z,4.80
2019-02-05T01:10:21.769Z,8.30
2019-02-05T01:12:50.338Z,3.20
2019-02-05T01:15:20.316Z,3.40
2019-02-05T01:17:48.905Z,4.87
2019-02-05T01:20:18.712Z,3.00
2019-02-05T01:22:47.668Z,3.83
2019-02-05T01:25:20.203Z,4.47
2019-02-05T01:27:49.114Z,6.07
2019-02-05T01:30:20.349Z,3.93
2019-02-05T01:32:49.004Z,5.50
2019-02-05T01:35:17.449Z,4.73
2019-02-05T01:37:45.821Z,3.43
2019-02-05T01:40:22.105Z,4.00
2019-02-05T01:42:50.539Z,4.73
2019-02-05T01:45:20.426Z,5.93
2019-02-05T01:47:49.119Z,5.70
2019-02-05T01:50:23.102Z,6.30
2019-02-05T01:52:51.564Z,6.60
2019-02-05T01:55:20.321Z,5.47
2019-02-05T01:57:49.306Z,4.47
2019-02-05T02:00:23.170Z,6.00
2019-02-05T02:02:51.627Z,3.97
2019-02-05T02:05:20.326Z,8.30
2019-02-05T02:07:49.387Z,6.47
2019-02-05T02:10:21.174Z,8.50
2019-02-05T02:12:49.551Z,6.63
2019-02-05T02:15:18.413Z,7.90
2019-02-05T02:17:46.902Z,9.40
2019-02-05T02:20:17.586Z,11.13
2019-02-05T02:22:46.205Z,5.60
2019-02-05T02:25:15.189Z,8.40
2019-02-05T02:27:43.639Z,7.67
2019-02-05T02:30:21.191Z,5.60
2019-02-05T02:32:49.559Z,8.97
2019-02-05T02:35:17.926Z,8.77
2019-02-05T02:37:46.445Z,7.83
2019-02-05T02:40:14.811Z,5.93
2019-02-05T02:42:43.188Z,8.03
2019-02-05T02:45:13.904Z,8.03
2019-02-05T02:47:42.638Z,7.57
2019-02-05T02:50:21.620Z,8.33
2019-02-05T02:52:51.057Z,7.60
2019-02-05T02:55:19.882Z,7.27
2019-02-05T02:57:48.391Z,8.83
2019-02-05T03:00:18.911Z,12.17
2019-02-05T03:02:47.457Z,4.87
2019-02-05T03:05:18.288Z,7.43
2019-02-05T03:07:47.292Z,5.57
2019-02-05T03:10:24.491Z,5.53
2019-02-05T03:12:53.120Z,9.30
2019-02-05T03:15:21.842Z,11.10
2019-02-05T03:17:50.225Z,17.77
2019-02-05T03:20:18.858Z,9.00
2019-02-05T03:22:49.843Z,2.57
2019-02-05T03:25:20.901Z,7.07
2019-02-05T03:27:53.537Z,3.10
2019-02-05T03:30:25.264Z,6.77
2019-02-05T03:32:55.638Z,13.40
2019-02-05T03:35:24.329Z,8.95
2019-02-05T03:37:52.906Z,4.30
2019-02-05T03:40:30.455Z,7.97
2019-02-05T03:42:59.317Z,6.83
2019-02-05T03:45:30.238Z,5.23
2019-02-05T03:48:01.666Z,6.27
2019-02-05T03:50:31.479Z,7.03
2019-02-05T03:53:15.331Z,6.63
2019-02-05T03:55:49.798Z,5.20
2019-02-05T03:58:29.952Z,6.63
2019-02-05T04:01:07.383Z,5.23
2019-02-05T04:03:47.936Z,4.27
2019-02-05T04:06:22.122Z,9.80
2019-02-05T04:08:59.043Z,7.13
2019-02-05T04:11:53.391Z,6.27
2019-02-05T04:14:39.607Z,5.17
2019-02-05T04:17:26.798Z,10.57
2019-02-05T04:20:20.666Z,7.30
2019-02-05T04:22:52.090Z,6.67
2019-02-05T04:25:44.480Z,10.50
2019-02-05T04:28:27.950Z,8.07
2019-02-05T04:31:02.544Z,8.70
2019-02-05T04:33:49.136Z,3.00
2019-02-05T04:36:32.486Z,11.43
2019-02-05T04:39:09.982Z,6.00
2019-02-05T04:41:41.410Z,5.40
2019-02-05T04:44:24.557Z,9.10
2019-02-05T04:47:07.568Z,5.40
2019-02-05T04:49:59.947Z,6.90
2019-02-05T04:52:40.189Z,9.53
2019-02-05T04:55:38.806Z,6.90
2019-02-05T04:58:31.652Z,6.40
2019-02-05T05:01:30.139Z,8.40
2019-02-05T05:04:18.134Z,3.97
2019-02-05T05:07:12.335Z,9.13
2019-02-05T05:09:55.922Z,8.10
2019-02-05T05:12:25.315Z,7.40
2019-02-05T05:14:53.745Z,8.57
2019-02-05T05:17:22.115Z,8.83
2019-02-05T05:19:51.222Z,6.42
2019-02-05T05:22:19.937Z,12.00
2019-02-05T05:24:48.564Z,6.00
2019-02-05T05:27:17.675Z,5.60
2019-02-05T05:29:46.500Z,9.20
2019-02-05T05:32:15.238Z,4.33
2019-02-05T05:34:43.647Z,3.37
2019-02-05T05:37:10.841Z,4.20
2019-02-05T05:39:39.228Z,4.47
2019-02-05T05:42:07.605Z,6.93
2019-02-05T05:44:35.986Z,5.17
2019-02-05T05:47:05.201Z,5.57
2019-02-05T05:49:33.582Z,6.40
2019-02-05T05:52:01.951Z,7.70
2019-02-05T05:54:30.328Z,6.80
2019-02-05T05:56:58.701Z,11.60
2019-02-05T05:59:27.083Z,5.70
2019-02-05T06:01:55.450Z,9.63
2019-02-05T06:04:24.110Z,9.47
2019-02-05T06:06:52.488Z,14.70
2019-02-05T06:09:21.341Z,5.00
2019-02-05T06:11:51.336Z,9.27
2019-02-05T06:14:19.707Z,7.53
2019-02-05T06:16:48.075Z,6.63
2019-02-05T06:19:16.452Z,6.13
2019-02-05T06:21:45.115Z,6.30
2019-02-05T06:24:13.494Z,4.67
2019-02-05T06:26:41.903Z,2.90
2019-02-05T06:29:10.269Z,5.83
2019-02-05T06:31:38.720Z,5.40
2019-02-05T06:34:07.085Z,5.10
2019-02-05T06:36:35.477Z,4.30
2019-02-05T06:39:07.038Z,3.77
2019-02-05T06:41:35.487Z,4.03
2019-02-05T06:44:04.113Z,5.90
2019-02-05T06:46:32.496Z,7.77
2019-02-05T06:49:00.873Z,5.53
2019-02-05T06:51:29.274Z,11.05
2019-02-05T06:53:57.640Z,5.27
2019-02-05T06:56:26.037Z,7.33
2019-02-05T06:58:54.405Z,10.93
2019-02-05T07:01:22.790Z,9.07
2019-02-05T07:03:51.682Z,13.40
2019-02-05T07:06:20.056Z,8.10
2019-02-05T07:08:48.433Z,10.50
2019-02-05T07:11:16.807Z,7.57
2019-02-05T07:13:45.179Z,9.93
2019-02-05T07:16:13.565Z,12.07
2019-02-05T07:18:42.013Z,12.50
2019-02-05T07:21:10.398Z,8.90
2019-02-05T07:23:38.765Z,9.93
2019-02-05T07:26:07.154Z,11.60
2019-02-05T07:28:35.538Z,14.70
2019-02-05T07:31:04.494Z,8.17
2019-02-05T07:33:32.871Z,8.90
2019-02-05T07:36:01.251Z,14.70
2019-02-05T07:38:29.643Z,26.70
2019-02-05T07:40:58.013Z,15.87
2019-02-05T07:43:26.415Z,14.67
2019-02-05T07:45:54.787Z,13.33
2019-02-05T07:48:23.170Z,13.07
2019-02-05T07:50:52.119Z,17.47
2019-02-05T07:53:20.509Z,8.97
2019-02-05T07:55:48.889Z,15.83
2019-02-05T07:58:17.291Z,15.53
2019-02-05T08:00:45.736Z,6.03
2019-02-05T08:03:14.118Z,7.63
2019-02-05T08:05:42.489Z,8.87
2019-02-05T08:08:11.587Z,12.57
2019-02-05T08:10:39.964Z,7.73
2019-02-05T08:13:08.591Z,6.42
2019-02-05T08:15:36.968Z,9.50
2019-02-05T08:18:05.961Z,6.70
2019-02-05T08:20:34.334Z,9.83
2019-02-05T08:23:02.710Z,8.93
2019-02-05T08:25:31.082Z,8.80
2019-02-05T08:27:59.845Z,25.77
2019-02-05T08:30:30.964Z,8.63
2019-02-05T08:32:59.352Z,14.83
2019-02-05T08:35:27.736Z,12.67
2019-02-05T08:37:56.129Z,15.60
2019-02-05T08:40:24.848Z,9.57
2019-02-05T08:42:53.403Z,10.77
2019-02-05T08:45:28.620Z,12.50
2019-02-05T08:47:57.002Z,17.77
2019-02-05T08:50:27.885Z,7.20
2019-02-05T08:52:56.350Z,10.37
2019-02-05T08:55:24.718Z,7.93
2019-02-05T08:57:58.814Z,18.13
2019-02-05T09:00:38.862Z,6.57
2019-02-05T09:03:09.378Z,6.10
2019-02-05T09:05:37.891Z,8.20
2019-02-05T09:08:06.449Z,11.80
2019-02-05T09:10:37.158Z,7.97
2019-02-05T09:13:05.877Z,11.97
2019-02-05T09:15:34.285Z,16.33
2019-02-05T09:18:02.833Z,15.63
2019-02-05T09:20:31.222Z,11.63
2019-02-05T09:22:59.603Z,8.48
2019-02-05T09:25:28.019Z,10.73
2019-02-05T09:27:56.397Z,26.07
2019-02-05T09:30:32.918Z,6.87
2019-02-05T09:33:04.231Z,8.38
2019-02-05T09:35:32.616Z,18.73
2019-02-05T09:38:01.003Z,16.25
2019-02-05T09:40:31.540Z,7.77
2019-02-05T09:43:00.060Z,11.13
2019-02-05T09:45:30.250Z,6.92
2019-02-05T09:47:58.960Z,14.03
2019-02-05T09:50:30.684Z,11.70
2019-02-05T09:52:57.452Z,7.53
2019-02-05T09:55:25.845Z,11.13
2019-02-05T09:57:54.226Z,7.87
2019-02-05T10:00:31.706Z,3.47
2019-02-05T10:03:00.455Z,15.07
2019-02-05T10:05:33.884Z,7.03
2019-02-05T10:08:02.326Z,11.73
2019-02-05T10:10:31.054Z,7.23
2019-02-05T10:12:59.432Z,10.60
2019-02-05T10:15:36.078Z,7.57
2019-02-05T10:18:05.799Z,7.97
2019-02-05T10:20:34.178Z,7.60
2019-02-05T10:23:03.498Z,10.43
2019-02-05T10:25:32.146Z,5.93
2019-02-05T10:28:00.518Z,3.50
2019-02-05T10:30:34.112Z,13.20
2019-02-05T10:33:02.930Z,9.27
2019-02-05T10:35:31.380Z,8.77
2019-02-05T10:38:00.105Z,16.90
2019-02-05T10:40:28.564Z,12.33
2019-02-05T10:42:57.175Z,6.97
2019-02-05T10:45:26.806Z,8.00
2019-02-05T10:47:55.449Z,17.20
2019-02-05T10:50:24.516Z,4.73
2019-02-05T10:52:53.625Z,5.63
2019-02-05T10:55:23.048Z,3.77
2019-02-05T10:57:53.494Z,5.00
2019-02-05T11:00:29.796Z,3.60
2019-02-05T11:03:00.910Z,2.63
2019-02-05T11:05:30.321Z,5.60
2019-02-05T11:07:59.034Z,3.13
2019-02-05T11:10:27.494Z,2.50
2019-02-05T11:12:55.869Z,5.10
2019-02-05T11:15:32.884Z,2.03
2019-02-05T11:18:02.882Z,3.00
2019-02-05T11:20:31.810Z,2.25
2019-02-05T11:23:00.351Z,2.97
2019-02-05T11:25:29.220Z,2.03
2019-02-05T11:27:57.682Z,2.97
2019-02-05T11:30:34.732Z,6.33
2019-02-05T11:33:03.098Z,4.50
2019-02-05T11:35:31.759Z,2.50
2019-02-05T11:38:00.165Z,4.80
2019-02-05T11:40:30.940Z,2.80
2019-02-05T11:42:59.524Z,3.53
2019-02-05T11:45:28.244Z,2.30
2019-02-05T11:47:58.672Z,2.40
2019-02-05T11:50:27.065Z,2.60
2019-02-05T11:52:55.929Z,4.40
2019-02-05T11:55:32.728Z,2.70
2019-02-05T11:58:01.145Z,6.25
2019-02-05T12:00:32.997Z,1.90
2019-02-05T12:03:01.688Z,8.33
2019-02-05T12:05:30.092Z,2.30
2019-02-05T12:07:58.867Z,2.58
2019-02-05T12:10:27.262Z,2.50
2019-02-05T12:12:55.668Z,2.60
2019-02-05T12:15:24.185Z,1.87
2019-02-05T12:17:52.585Z,3.50
2019-02-05T12:20:21.299Z,2.50
2019-02-05T12:22:50.364Z,2.23
2019-02-05T12:25:23.813Z,2.10
2019-02-05T12:27:52.488Z,1.97
2019-02-05T12:30:23.916Z,4.20
2019-02-05T12:32:52.310Z,2.50
2019-02-05T12:35:20.693Z,2.27
2019-02-05T12:37:49.159Z,2.40
2019-02-05T12:40:18.979Z,2.00
2019-02-05T12:42:47.560Z,3.60
2019-02-05T12:45:21.459Z,3.60
2019-02-05T12:47:49.854Z,4.13
2019-02-05T12:50:20.922Z,2.83
2019-02-05T12:52:49.460Z,34.87
2019-02-05T12:55:18.042Z,3.47
2019-02-05T12:57:46.532Z,4.00
2019-02-05T13:00:18.307Z,2.17
2019-02-05T13:02:46.835Z,4.20
2019-02-05T13:05:15.546Z,3.77
2019-02-05T13:07:44.014Z,4.30
2019-02-05T13:10:21.345Z,3.33
2019-02-05T13:12:49.897Z,11.37
2019-02-05T13:15:18.285Z,19.93
2019-02-05T13:17:46.699Z,44.43
2019-02-05T13:20:20.839Z,42.90
2019-02-05T13:22:49.301Z,49.73
2019-02-05T13:25:23.649Z,61.03
2019-02-05T13:27:52.194Z,47.63
2019-02-05T13:30:23.052Z,42.70
2019-02-05T13:32:51.465Z,44.97
2019-02-05T13:35:21.215Z,41.70
2019-02-05T13:37:50.050Z,43.20
2019-02-05T13:40:20.918Z,39.23
2019-02-05T13:42:49.325Z,42.27
2019-02-05T13:45:20.715Z,37.33
2019-02-05T13:47:49.222Z,35.63
2019-02-05T13:50:32.119Z,34.17
2019-02-05T13:52:50.803Z,36.63
2019-02-05T13:55:30.101Z,30.50
2019-02-05T13:57:58.939Z,31.77
2019-02-05T14:00:32.668Z,27.50
2019-02-05T14:03:01.224Z,35.08
2019-02-05T14:05:29.794Z,28.20
2019-02-05T14:07:58.239Z,24.33
2019-02-05T14:10:37.958Z,24.73
2019-02-05T14:13:06.883Z,27.20
2019-02-05T14:15:37.768Z,22.83
2019-02-05T14:18:07.275Z,25.27
2019-02-05T14:20:35.667Z,22.10
2019-02-05T14:23:04.234Z,23.40
2019-02-05T14:25:32.634Z,18.57
2019-02-05T14:28:01.009Z,19.33
2019-02-05T14:30:34.711Z,23.47
2019-02-05T14:33:03.583Z,19.07
2019-02-05T14:35:32.244Z,20.60
2019-02-05T14:38:00.941Z,19.10
2019-02-05T14:40:29.715Z,20.80
2019-02-05T14:42:58.494Z,16.80
2019-02-05T14:45:26.976Z,15.00
2019-02-05T14:47:55.576Z,18.90
2019-02-05T14:50:26.479Z,16.20
2019-02-05T14:52:56.214Z,19.42
2019-02-05T14:55:25.748Z,14.87
2019-02-05T14:57:54.454Z,17.23
2019-02-05T15:00:31.644Z,17.17
2019-02-05T15:03:02.071Z,16.80
2019-02-05T15:05:30.796Z,16.87
2019-02-05T15:07:59.218Z,13.50
2019-02-05T15:10:27.769Z,16.60
2019-02-05T15:12:56.353Z,17.70
2019-02-05T15:15:28.347Z,15.32
2019-02-05T15:17:57.409Z,15.50
2019-02-05T15:20:34.157Z,14.47
2019-02-05T15:23:02.602Z,20.93
2019-02-05T15:25:31.026Z,11.63
2019-02-05T15:27:59.679Z,12.20
2019-02-05T15:30:31.102Z,12.97
2019-02-05T15:33:04.103Z,15.30
2019-02-05T15:35:32.486Z,9.80
2019-02-05T15:38:00.948Z,17.07
2019-02-05T15:40:29.516Z,10.47
2019-02-05T15:42:57.921Z,8.87
2019-02-05T15:45:26.575Z,13.60
2019-02-05T15:47:55.948Z,11.80
2019-02-05T15:50:24.357Z,11.20
2019-02-05T15:52:52.776Z,11.53
2019-02-05T15:55:21.260Z,12.30
2019-02-05T15:57:49.635Z,11.10
2019-02-05T16:00:23.550Z,16.10
2019-02-05T16:02:52.038Z,10.77
2019-02-05T16:05:20.448Z,10.60
2019-02-05T16:07:48.856Z,8.43
2019-02-05T16:10:23.155Z,10.53
2019-02-05T16:12:51.634Z,7.77
2019-02-05T16:15:20.166Z,12.93
2019-02-05T16:17:48.808Z,14.03
2019-02-05T16:20:18.449Z,8.40
2019-02-05T16:22:47.098Z,11.60
2019-02-05T16:25:15.827Z,7.07
2019-02-05T16:27:44.409Z,8.23
2019-02-05T16:30:27.193Z,12.77
2019-02-05T16:32:56.291Z,10.20
2019-02-05T16:35:24.732Z,20.50
2019-02-05T16:37:54.562Z,9.83
2019-02-05T16:40:34.780Z,12.97
2019-02-05T16:43:03.158Z,12.43
2019-02-05T16:45:32.212Z,13.90
2019-02-05T16:48:00.605Z,9.93
2019-02-05T16:50:37.557Z,12.30
2019-02-05T16:53:07.575Z,11.40
2019-02-05T16:55:35.956Z,10.63
2019-02-05T16:58:05.190Z,11.50
2019-02-05T17:00:34.904Z,9.30
2019-02-05T17:03:03.463Z,10.80
2019-02-05T17:05:33.575Z,11.27
2019-02-05T17:08:02.200Z,11.33
2019-02-05T17:10:30.855Z,34.73
2019-02-05T17:12:59.418Z,28.87
2019-02-05T17:15:27.792Z,21.03
2019-02-05T17:17:56.694Z,18.50
2019-02-05T17:20:27.116Z,13.97
2019-02-05T17:22:55.675Z,17.27
2019-02-05T17:25:25.862Z,11.60
2019-02-05T17:27:55.088Z,16.47
2019-02-05T17:30:29.116Z,14.53
2019-02-05T17:32:57.761Z,13.70
2019-02-05T17:35:26.949Z,15.03
2019-02-05T17:37:55.396Z,17.43
2019-02-05T17:40:25.706Z,13.03
2019-02-05T17:42:55.120Z,12.97
2019-02-05T17:45:26.046Z,10.43
2019-02-05T17:47:54.452Z,14.57
2019-02-05T17:50:22.837Z,11.93
2019-02-05T17:52:51.207Z,9.10
2019-02-05T17:55:20.721Z,16.03
2019-02-05T17:57:49.106Z,11.17
2019-02-05T18:00:36.101Z,9.70
2019-02-05T18:03:05.430Z,10.10
2019-02-05T18:05:34.900Z,15.40
2019-02-05T18:08:03.384Z,10.13
2019-02-05T18:10:31.775Z,9.73
2019-02-05T18:13:00.155Z,10.20
2019-02-05T18:15:36.495Z,7.30
2019-02-05T18:18:06.407Z,7.00
2019-02-05T18:20:35.274Z,9.63
2019-02-05T18:23:03.862Z,7.60
2019-02-05T18:25:32.297Z,12.23
2019-02-05T18:28:00.721Z,11.53
2019-02-05T18:30:31.984Z,10.60
2019-02-05T18:33:03.719Z,10.57
2019-02-05T18:35:31.018Z,8.07
2019-02-05T18:38:00.352Z,10.30
2019-02-05T18:40:29.332Z,9.27
2019-02-05T18:42:58.182Z,14.23
2019-02-05T18:45:27.470Z,14.78
2019-02-05T18:47:55.867Z,10.80
2019-02-05T18:50:26.939Z,8.47
2019-02-05T18:52:55.581Z,8.57
2019-02-05T18:55:26.559Z,10.53
2019-02-05T18:57:54.939Z,7.80
2019-02-05T19:00:34.910Z,8.60
2019-02-05T19:03:14.433Z,7.67
2019-02-05T19:05:33.803Z,7.40
2019-02-05T19:08:02.246Z,7.47
2019-02-05T19:10:31.749Z,9.57
2019-02-05T19:13:00.366Z,7.80
2019-02-05T19:15:33.887Z,7.80
2019-02-05T19:18:02.535Z,9.67
2019-02-05T19:20:31.866Z,8.60
2019-02-05T19:23:00.877Z,7.87
2019-02-05T19:25:42.950Z,5.80
2019-02-05T19:28:13.198Z,8.93
2019-02-05T19:30:43.405Z,5.60
2019-02-05T19:33:11.775Z,8.98
2019-02-05T19:35:40.165Z,5.27
2019-02-05T19:38:08.612Z,6.20
2019-02-05T19:40:36.994Z,7.67
2019-02-05T19:43:05.620Z,7.20
2019-02-05T19:45:44.783Z,6.97
2019-02-05T19:48:14.790Z,5.30
2019-02-05T19:50:43.251Z,5.60
2019-02-05T19:53:11.629Z,7.40
2019-02-05T19:55:40.012Z,8.53
2019-02-05T19:58:08.460Z,7.73
2019-02-05T20:00:36.842Z,5.17
2019-02-05T20:03:06.584Z,6.37
2019-02-05T20:05:35.162Z,7.90
2019-02-05T20:08:03.604Z,6.37
2019-02-05T20:10:31.994Z,7.73
2019-02-05T20:13:00.365Z,6.23
2019-02-05T20:15:28.745Z,5.93
2019-02-05T20:17:58.061Z,9.03
2019-02-05T20:20:26.586Z,4.00
2019-02-05T20:22:54.968Z,7.20
2019-02-05T20:25:23.335Z,8.53
2019-02-05T20:27:51.725Z,7.33
2019-02-05T20:30:25.419Z,5.10
2019-02-05T20:32:53.799Z,5.47
2019-02-05T20:35:22.182Z,11.03
2019-02-05T20:37:50.846Z,6.40
2019-02-05T20:40:26.705Z,4.77
2019-02-05T20:42:55.037Z,4.30
2019-02-05T20:45:23.420Z,4.50
2019-02-05T20:47:52.038Z,6.87
2019-02-05T20:50:23.576Z,5.50
2019-02-05T20:52:52.084Z,7.43
2019-02-05T20:55:21.907Z,4.50
2019-02-05T20:57:50.373Z,5.80
2019-02-05T21:00:23.825Z,4.97
2019-02-05T21:02:52.366Z,5.97
2019-02-05T21:05:21.148Z,6.43
2019-02-05T21:07:50.071Z,5.97
2019-02-05T21:10:26.733Z,6.80
2019-02-05T21:12:55.120Z,4.00
2019-02-05T21:15:24.034Z,5.10
2019-02-05T21:17:52.419Z,5.33
2019-02-05T21:20:34.005Z,6.10
2019-02-05T21:23:00.037Z,5.70
2019-02-05T21:25:28.787Z,4.40
2019-02-05T21:27:58.316Z,3.93
2019-02-05T21:30:27.296Z,5.00
2019-02-05T21:32:55.698Z,5.93
2019-02-05T21:35:24.074Z,4.60
2019-02-05T21:37:52.463Z,5.27
2019-02-05T21:40:25.102Z,5.90
2019-02-05T21:42:53.851Z,4.43
2019-02-05T21:45:32.243Z,4.73
2019-02-05T21:48:00.742Z,4.40
2019-02-05T21:50:29.080Z,4.70
2019-02-05T21:52:58.868Z,5.40
2019-02-05T21:55:27.880Z,5.83
2019-02-05T21:57:56.798Z,7.07
2019-02-05T22:00:29.743Z,3.83
2019-02-05T22:02:59.196Z,4.97
2019-02-05T22:05:29.060Z,6.03
2019-02-05T22:07:57.543Z,4.80
2019-02-05T22:10:26.180Z,4.93
2019-02-05T22:12:54.763Z,4.37
2019-02-05T22:15:23.607Z,4.60
2019-02-05T22:17:51.979Z,4.53
2019-02-05T22:20:22.853Z,6.37
2019-02-05T22:22:51.223Z,4.80
2019-02-05T22:25:22.402Z,6.43
2019-02-05T22:27:50.763Z,6.37
2019-02-05T22:30:21.194Z,4.57
2019-02-05T22:32:49.814Z,4.83
2019-02-05T22:35:19.851Z,4.30
2019-02-05T22:37:48.671Z,4.90
2019-02-05T22:40:19.405Z,4.10
2019-02-05T22:42:47.855Z,6.17
2019-02-05T22:45:22.316Z,4.37
2019-02-05T22:47:50.926Z,6.30
2019-02-05T22:50:24.512Z,5.10
2019-02-05T22:52:53.051Z,4.87
2019-02-05T22:55:21.459Z,7.53
2019-02-05T22:57:49.833Z,7.70
2019-02-05T23:00:56.280Z,5.20
2019-02-05T23:03:40.479Z,4.43
2019-02-05T23:06:24.021Z,5.40
2019-02-05T23:08:53.434Z,4.50
2019-02-05T23:11:45.788Z,3.70
2019-02-05T23:14:14.229Z,4.50
2019-02-05T23:16:42.617Z,6.10
2019-02-05T23:19:11.058Z,5.67
2019-02-05T23:21:39.786Z,5.37
2019-02-05T23:24:08.327Z,4.27
2019-02-05T23:26:36.711Z,4.30
2019-02-05T23:29:05.090Z,5.53
2019-02-05T23:31:33.468Z,5.30
2019-02-05T23:34:01.846Z,4.13
2019-02-05T23:36:30.233Z,4.40
2019-02-05T23:38:58.602Z,4.17
2019-02-05T23:41:26.980Z,3.43
2019-02-05T23:43:55.359Z,3.57
2019-02-05T23:46:23.747Z,5.87
2019-02-05T23:48:52.128Z,3.43
2019-02-05T23:51:20.511Z,6.23
2019-02-05T23:53:48.975Z,4.27
2019-02-05T23:56:25.485Z,4.37
2019-02-05T23:58:47.466Z,7.70
